Alstead Center, New Hampshire
Current Conditions -  °F | °C
As of 7:35 PM on Saturday 25 Oct 2014 (Local Time) from KEEN Reporting Station
Broken Clouds Broken Clouds  
Wind Chill: 52°   Ceiling: 11000
Heat Index: 52°   Visibility: 10mi
Dew Point: 41°   Wind: 0mph
Humidity: 67%   Direction: NA
Pressure: 29.57"   Gusts: NA
Location:  43.1141°N, 72.3097°W
Report Text: KEEN 252335Z AUTO 00000KT 10SM FEW070 BKN110 11/05 A2957 RMK AO1
Loading
Personal Weather Stations






























Interactive Weather Map New forecast layout! Learn more

10-Day Weather Forecast

Advertisements
Track Severe Weather on mobile